Time;durP1;ratioP1;P1;durP2;ratioP2;P2;SDS_P1;SDS_P2;PMS_P1;PMS_P2;Temp;Humidity;BMP_temperature;BMP_pressure;BME280_temperature;BME280_humidity;BME280_pressure;Samples;Min_cycle;Max_cycle;Signal;HPM_P1;HPM_P2
2023/05/09 00:01:57;;;;;;;10.48;7.88;;;16.00;99.90;;;;;;5059320;28;20249;-71
2023/05/09 00:04:23;;;;;;;11.20;7.82;;;16.00;99.90;;;;;;5049844;28;20640;-73
2023/05/09 00:06:49;;;;;;;10.10;7.28;;;16.00;99.90;;;;;;5037219;28;20266;-73
2023/05/09 00:09:15;;;;;;;11.88;7.57;;;16.00;99.90;;;;;;5053792;28;20239;-71
2023/05/09 00:11:41;;;;;;;11.70;7.30;;;15.80;99.90;;;;;;5046862;28;20677;-72
2023/05/09 00:14:07;;;;;;;8.43;6.90;;;15.70;99.90;;;;;;5086406;28;20631;-72
2023/05/09 00:16:33;;;;;;;11.00;7.22;;;15.90;99.90;;;;;;5054805;28;20186;-72
2023/05/09 00:18:59;;;;;;;11.75;7.38;;;16.00;99.90;;;;;;5054514;28;20236;-72
2023/05/09 00:21:24;;;;;;;12.85;7.82;;;16.10;99.90;;;;;;5054342;28;20206;-72
2023/05/09 00:23:50;;;;;;;9.38;6.90;;;16.20;99.90;;;;;;5054396;28;20182;-72
2023/05/09 00:26:16;;;;;;;13.18;7.45;;;16.10;99.90;;;;;;5054294;28;20190;-72
2023/05/09 00:28:42;;;;;;;12.63;7.32;;;15.80;99.90;;;;;;5051448;28;20182;-72
2023/05/09 00:31:07;;;;;;;12.77;8.13;;;15.90;99.90;;;;;;5044595;28;20659;-74
2023/05/09 00:33:33;;;;;;;10.23;7.13;;;15.80;99.90;;;;;;5063855;28;20193;-72
2023/05/09 00:35:59;;;;;;;10.82;7.43;;;16.00;99.90;;;;;;5053626;28;20178;-72
2023/05/09 00:38:25;;;;;;;11.00;7.82;;;16.00;99.90;;;;;;5040281;28;20186;-71
2023/05/09 00:40:50;;;;;;;11.90;6.53;;;16.10;99.90;;;;;;5038545;28;20235;-73
2023/05/09 00:43:16;;;;;;;11.23;7.68;;;16.30;99.90;;;;;;5061343;28;20178;-72
2023/05/09 00:45:43;;;;;;;10.80;8.00;;;16.10;99.90;;;;;;5047881;28;20298;-72
2023/05/09 00:48:08;;;;;;;11.32;7.18;;;16.00;99.90;;;;;;5038413;28;20186;-72
2023/05/09 00:50:35;;;;;;;12.57;6.93;;;16.20;99.90;;;;;;5074899;28;20243;-72
2023/05/09 00:53:02;;;;;;;13.23;7.70;;;16.10;99.90;;;;;;5053889;28;20243;-72
2023/05/09 00:55:28;;;;;;;9.60;6.75;;;16.20;99.90;;;;;;5050192;28;20278;-72
2023/05/09 00:57:54;;;;;;;10.50;6.85;;;16.30;99.90;;;;;;5053885;28;20616;-71
2023/05/09 01:00:20;;;;;;;12.35;7.22;;;16.40;99.90;;;;;;5052129;28;20292;-72
2023/05/09 01:02:51;;;;;;;9.15;7.07;;;16.40;99.90;;;;;;5042898;28;20181;-72
2023/05/09 01:05:18;;;;;;;11.27;6.80;;;16.30;99.90;;;;;;5044423;28;20178;-72
2023/05/09 01:07:59;;;;;;;12.07;7.03;;;16.40;99.90;;;;;;5047817;28;20269;-72
2023/05/09 01:10:45;;;;;;;11.55;6.43;;;16.30;99.90;;;;;;5047716;28;20231;-72
2023/05/09 01:13:38;;;;;;;10.27;6.80;;;16.40;99.90;;;;;;5053942;28;20193;-71
2023/05/09 01:16:19;;;;;;;11.60;6.60;;;16.40;99.90;;;;;;5048489;28;20209;-71
2023/05/09 01:19:00;;;;;;;10.02;7.10;;;16.20;99.90;;;;;;5047233;28;20658;-72
2023/05/09 01:21:29;;;;;;;8.55;6.40;;;16.20;99.90;;;;;;5045817;28;20689;-72
2023/05/09 01:24:23;;;;;;;8.70;6.40;;;16.40;99.90;;;;;;5049379;28;20551;-71
2023/05/09 01:27:26;;;;;;;8.55;5.88;;;16.40;99.90;;;;;;5043172;28;20178;-72
2023/05/09 01:30:01;;;;;;;9.45;6.90;;;16.40;99.90;;;;;;5049070;28;20193;-71
2023/05/09 01:32:29;;;;;;;11.32;7.22;;;16.50;99.90;;;;;;5051781;28;20192;-72
2023/05/09 01:34:58;;;;;;;10.50;7.03;;;16.40;99.90;;;;;;5050572;28;20178;-71
2023/05/09 01:37:30;;;;;;;9.20;6.68;;;16.40;99.90;;;;;;5044386;28;20270;-71
2023/05/09 01:40:00;;;;;;;11.52;7.20;;;16.30;99.90;;;;;;5052753;28;20575;-71
2023/05/09 01:42:32;;;;;;;9.23;6.72;;;16.20;99.90;;;;;;5045966;28;20549;-71
2023/05/09 01:44:58;;;;;;;9.48;6.40;;;16.10;99.90;;;;;;5041173;28;20178;-71
2023/05/09 01:47:26;;;;;;;11.57;7.38;;;16.20;99.90;;;;;;5051999;28;20205;-71
2023/05/09 01:49:52;;;;;;;10.05;7.07;;;16.20;99.90;;;;;;5045454;28;20183;-71
2023/05/09 01:52:20;;;;;;;9.43;6.80;;;16.20;99.90;;;;;;5041938;28;20178;-71
2023/05/09 01:54:47;;;;;;;11.55;6.72;;;16.20;99.90;;;;;;5048305;28;20177;-72
2023/05/09 01:57:13;;;;;;;10.23;6.05;;;16.10;99.90;;;;;;5051781;28;20178;-71
2023/05/09 01:59:43;;;;;;;8.15;6.97;;;16.20;99.90;;;;;;5042906;28;20324;-71
2023/05/09 02:02:09;;;;;;;17.30;6.63;;;16.20;99.90;;;;;;5050685;28;20272;-71
2023/05/09 02:04:36;;;;;;;11.27;6.18;;;16.20;99.90;;;;;;5052656;28;20217;-71
2023/05/09 02:07:04;;;;;;;8.95;7.13;;;16.30;99.90;;;;;;5050935;28;20201;-71
2023/05/09 02:09:30;;;;;;;7.97;6.40;;;16.20;99.90;;;;;;5050612;28;20185;-71
2023/05/09 02:11:55;;;;;;;7.38;5.80;;;16.30;99.90;;;;;;5045647;28;20194;-71
2023/05/09 02:14:21;;;;;;;11.07;6.47;;;16.30;99.90;;;;;;5052263;28;20584;-71
2023/05/09 02:16:47;;;;;;;8.80;6.82;;;16.20;99.90;;;;;;5051692;28;20190;-71
2023/05/09 02:19:12;;;;;;;9.00;6.78;;;16.30;99.90;;;;;;5072356;28;20233;-73
2023/05/09 02:21:38;;;;;;;8.63;5.82;;;16.40;99.90;;;;;;5044480;28;20230;-72
2023/05/09 02:24:04;;;;;;;9.43;6.30;;;16.20;99.90;;;;;;5037048;28;20194;-71
2023/05/09 02:26:30;;;;;;;10.13;6.65;;;16.10;99.90;;;;;;5051523;28;20228;-72
2023/05/09 02:28:57;;;;;;;8.70;6.43;;;16.00;99.90;;;;;;5045485;28;20182;-72
2023/05/09 02:31:27;;;;;;;8.25;6.07;;;16.10;99.90;;;;;;5047251;28;20182;-72
2023/05/09 02:33:54;;;;;;;12.45;7.43;;;16.10;99.90;;;;;;5075987;28;20202;-72
2023/05/09 02:36:21;;;;;;;11.63;6.05;;;16.20;99.90;;;;;;5042079;28;20237;-72
2023/05/09 02:38:47;;;;;;;11.73;6.95;;;16.30;99.90;;;;;;5044143;28;20170;-73
2023/05/09 02:41:16;;;;;;;10.38;6.68;;;16.20;99.90;;;;;;5035199;28;20232;-72
2023/05/09 02:43:42;;;;;;;11.75;6.30;;;16.20;99.90;;;;;;5042710;28;20187;-71
2023/05/09 02:46:09;;;;;;;9.75;6.40;;;16.10;99.90;;;;;;5050550;28;20178;-72
2023/05/09 02:48:35;;;;;;;7.78;6.00;;;16.20;99.90;;;;;;5072239;28;20265;-72
2023/05/09 02:51:01;;;;;;;12.60;7.43;;;16.30;99.90;;;;;;5051610;28;20178;-72
2023/05/09 02:53:27;;;;;;;7.22;6.22;;;16.40;99.90;;;;;;5042574;28;20248;-71
2023/05/09 02:55:53;;;;;;;10.85;5.97;;;16.40;99.90;;;;;;5049505;28;20196;-72
2023/05/09 02:58:19;;;;;;;8.38;6.50;;;16.40;99.90;;;;;;5045864;28;21259;-70
2023/05/09 03:00:45;;;;;;;11.35;7.38;;;16.40;99.90;;;;;;5044740;28;20259;-73
2023/05/09 03:03:11;;;;;;;8.60;6.88;;;16.40;99.90;;;;;;5050791;28;20274;-72
2023/05/09 03:05:37;;;;;;;7.40;6.30;;;16.40;99.90;;;;;;5052240;28;20242;-72
2023/05/09 03:08:03;;;;;;;8.88;5.85;;;16.40;99.90;;;;;;5050825;28;20221;-72
2023/05/09 03:10:28;;;;;;;13.25;6.78;;;16.40;99.90;;;;;;5049534;28;20182;-71
2023/05/09 03:12:54;;;;;;;10.50;6.88;;;16.30;99.90;;;;;;5051111;28;20193;-71
2023/05/09 03:15:20;;;;;;;11.57;6.93;;;16.30;99.90;;;;;;5045865;28;20558;-71
2023/05/09 03:17:46;;;;;;;10.73;6.43;;;16.40;99.90;;;;;;5037453;28;20544;-71
2023/05/09 03:20:12;;;;;;;7.95;6.28;;;16.40;99.90;;;;;;5051490;28;20602;-71
2023/05/09 03:22:37;;;;;;;7.65;5.43;;;16.40;99.90;;;;;;5053551;28;20186;-71
2023/05/09 03:25:03;;;;;;;11.35;6.95;;;16.50;99.90;;;;;;5049196;28;20193;-71
2023/05/09 03:27:29;;;;;;;9.75;6.70;;;16.40;99.90;;;;;;5052972;28;20673;-72
2023/05/09 03:29:55;;;;;;;9.52;7.40;;;16.40;99.90;;;;;;5055152;28;20190;-71
2023/05/09 03:32:21;;;;;;;8.07;6.80;;;16.30;99.90;;;;;;5052534;28;20173;-72
2023/05/09 03:34:46;;;;;;;12.65;8.25;;;16.20;99.90;;;;;;5044496;28;20524;-70
2023/05/09 03:37:12;;;;;;;8.90;6.95;;;16.10;99.90;;;;;;5053266;28;20186;-71
2023/05/09 03:39:37;;;;;;;11.07;8.30;;;16.10;99.90;;;;;;5051001;28;20226;-71
2023/05/09 03:42:03;;;;;;;11.85;8.48;;;16.20;99.90;;;;;;5044804;28;20265;-71
2023/05/09 03:44:29;;;;;;;9.65;7.50;;;16.20;99.90;;;;;;5045452;28;20232;-72
2023/05/09 03:46:55;;;;;;;11.52;7.55;;;15.90;99.90;;;;;;5054307;28;20188;-71
2023/05/09 03:49:20;;;;;;;11.43;7.45;;;15.90;99.90;;;;;;5047035;28;20190;-72
2023/05/09 03:51:46;;;;;;;10.02;7.38;;;16.00;99.90;;;;;;5047365;28;20717;-71
2023/05/09 03:54:11;;;;;;;8.57;6.68;;;15.90;99.90;;;;;;5053584;28;20266;-71
2023/05/09 03:56:37;;;;;;;11.55;7.20;;;16.00;99.90;;;;;;5044485;28;20186;-71
2023/05/09 03:59:03;;;;;;;12.50;7.85;;;16.10;99.90;;;;;;5061809;28;20182;-72
2023/05/09 04:01:29;;;;;;;9.50;7.03;;;16.20;99.90;;;;;;5050583;28;20245;-72
2023/05/09 04:03:56;;;;;;;10.95;8.32;;;16.10;99.90;;;;;;5042700;28;20289;-72
2023/05/09 04:06:22;;;;;;;13.40;8.05;;;15.90;99.90;;;;;;5055037;28;20182;-72
2023/05/09 04:08:48;;;;;;;9.10;6.90;;;16.10;99.90;;;;;;5033141;28;20190;-72
2023/05/09 04:11:14;;;;;;;11.93;7.45;;;16.10;99.90;;;;;;5054677;28;20185;-73
2023/05/09 04:13:39;;;;;;;10.65;8.00;;;15.90;99.90;;;;;;5053075;28;20189;-72
2023/05/09 04:16:05;;;;;;;12.25;7.75;;;15.70;99.90;;;;;;5054887;28;20190;-73
2023/05/09 04:18:31;;;;;;;12.20;7.88;;;15.90;99.90;;;;;;5051958;28;20252;-73
2023/05/09 04:20:57;;;;;;;13.75;8.95;;;15.80;99.90;;;;;;5054615;28;20229;-72
2023/05/09 04:23:23;;;;;;;12.38;8.27;;;15.70;99.90;;;;;;5049692;28;20531;-72
2023/05/09 04:25:50;;;;;;;12.60;8.75;;;15.80;99.90;;;;;;5049822;28;20181;-72
2023/05/09 04:28:16;;;;;;;12.30;7.60;;;15.90;99.90;;;;;;5048781;28;20542;-72
2023/05/09 04:30:42;;;;;;;11.77;8.20;;;15.90;99.90;;;;;;5054698;28;20185;-74
2023/05/09 04:33:07;;;;;;;11.30;7.88;;;16.00;99.90;;;;;;5050144;28;20703;-66
2023/05/09 04:35:33;;;;;;;13.68;8.13;;;16.00;99.90;;;;;;5053780;28;20243;-67
2023/05/09 04:37:59;;;;;;;14.38;9.20;;;16.00;99.90;;;;;;5047909;28;20183;-66
2023/05/09 04:40:25;;;;;;;12.40;7.82;;;16.10;99.90;;;;;;5052565;28;20221;-66
2023/05/09 04:42:51;;;;;;;15.55;8.40;;;16.10;99.90;;;;;;5053355;28;20174;-66
2023/05/09 04:45:16;;;;;;;13.20;8.85;;;16.00;99.90;;;;;;5052306;28;20181;-65
2023/05/09 04:47:42;;;;;;;14.00;8.65;;;16.10;99.90;;;;;;5051066;28;20205;-66
2023/05/09 04:50:09;;;;;;;14.30;8.57;;;16.10;99.90;;;;;;5053625;28;20250;-66
2023/05/09 04:52:34;;;;;;;12.40;9.50;;;16.10;99.90;;;;;;5053503;28;20265;-66
2023/05/09 04:55:00;;;;;;;14.85;8.38;;;16.20;99.90;;;;;;5052790;28;20689;-67
2023/05/09 04:57:26;;;;;;;15.35;9.18;;;16.10;99.90;;;;;;5053176;28;20197;-67
2023/05/09 04:59:52;;;;;;;14.75;9.25;;;16.10;99.90;;;;;;5044546;28;20572;-67
2023/05/09 05:02:18;;;;;;;19.33;9.00;;;16.00;99.90;;;;;;5048515;28;20187;-67
2023/05/09 05:04:44;;;;;;;14.32;9.93;;;16.20;99.90;;;;;;5054105;28;20328;-67
2023/05/09 05:07:09;;;;;;;13.73;9.32;;;16.20;99.90;;;;;;5053677;28;20674;-68
2023/05/09 05:09:35;;;;;;;12.57;8.98;;;16.00;99.90;;;;;;5052493;28;20635;-67
2023/05/09 05:12:01;;;;;;;12.38;8.95;;;16.00;99.90;;;;;;5033488;28;20273;-66
2023/05/09 05:14:26;;;;;;;13.27;8.80;;;16.10;99.90;;;;;;5051830;28;20181;-67
2023/05/09 05:16:52;;;;;;;15.55;10.32;;;16.10;99.90;;;;;;5051057;28;20178;-67
2023/05/09 05:19:18;;;;;;;12.25;8.57;;;16.20;99.90;;;;;;5043740;28;20231;-68
2023/05/09 05:21:43;;;;;;;12.93;8.93;;;16.10;99.90;;;;;;5053424;28;20662;-67
2023/05/09 05:24:09;;;;;;;13.82;8.77;;;15.90;99.90;;;;;;5048276;28;20186;-68
2023/05/09 05:26:35;;;;;;;13.10;9.30;;;15.90;99.90;;;;;;5052933;28;20261;-69
2023/05/09 05:29:00;;;;;;;13.93;9.55;;;15.80;99.90;;;;;;5051950;28;20232;-67
2023/05/09 05:31:26;;;;;;;14.40;8.30;;;15.90;99.90;;;;;;5047218;28;20178;-68
2023/05/09 05:33:52;;;;;;;14.60;9.02;;;15.80;99.90;;;;;;5050193;28;20269;-67
2023/05/09 05:36:17;;;;;;;13.40;8.82;;;15.80;99.90;;;;;;5046645;28;20209;-68
2023/05/09 05:38:43;;;;;;;17.05;9.65;;;15.80;99.90;;;;;;5040818;28;20783;-67
2023/05/09 05:41:10;;;;;;;10.60;8.73;;;15.80;99.90;;;;;;5048790;28;20215;-68
2023/05/09 05:43:36;;;;;;;13.65;8.48;;;15.50;99.90;;;;;;5042351;28;20186;-66
2023/05/09 05:46:01;;;;;;;11.18;7.70;;;15.40;99.90;;;;;;5039836;28;20181;-70
2023/05/09 05:48:27;;;;;;;16.00;8.55;;;15.50;99.90;;;;;;5038530;28;20515;-68
2023/05/09 05:50:53;;;;;;;14.15;8.13;;;15.50;99.90;;;;;;5049056;28;20222;-67
2023/05/09 05:53:18;;;;;;;13.10;7.78;;;15.60;99.90;;;;;;5046080;28;20190;-66
2023/05/09 05:55:45;;;;;;;13.38;8.88;;;15.70;99.90;;;;;;5038676;28;20227;-67
2023/05/09 05:58:11;;;;;;;11.95;7.88;;;15.70;99.90;;;;;;5052620;28;20213;-67
2023/05/09 06:00:36;;;;;;;13.18;8.02;;;15.80;99.90;;;;;;5049695;28;20268;-68
2023/05/09 06:03:02;;;;;;;11.45;8.02;;;15.80;99.90;;;;;;5036475;28;20183;-67
2023/05/09 06:05:28;;;;;;;13.70;8.10;;;16.00;99.90;;;;;;5043164;28;20186;-69
2023/05/09 06:07:54;;;;;;;11.77;8.02;;;15.90;99.90;;;;;;5043456;28;20182;-69
2023/05/09 06:10:19;;;;;;;11.98;7.70;;;16.00;99.90;;;;;;5037566;28;20186;-70
2023/05/09 06:12:45;;;;;;;19.88;8.75;;;15.90;99.90;;;;;;5083219;28;20206;-67
2023/05/09 06:15:11;;;;;;;14.05;8.38;;;15.90;99.90;;;;;;5047048;28;20336;-67
2023/05/09 06:17:36;;;;;;;12.65;8.10;;;16.00;99.90;;;;;;5047604;28;20701;-66
2023/05/09 06:20:02;;;;;;;14.25;9.90;;;16.10;99.90;;;;;;5033033;28;20238;-67
2023/05/09 06:22:28;;;;;;;15.85;7.78;;;16.10;99.90;;;;;;5038739;28;20182;-68
2023/05/09 06:24:54;;;;;;;11.52;8.10;;;16.10;99.90;;;;;;5045907;28;20181;-68
2023/05/09 06:27:19;;;;;;;12.75;7.95;;;16.10;99.90;;;;;;5082459;28;20213;-67
2023/05/09 06:29:45;;;;;;;14.27;10.63;;;16.20;99.90;;;;;;5038313;28;20201;-70
2023/05/09 06:32:11;;;;;;;15.85;10.23;;;16.30;99.90;;;;;;5049097;28;20189;-67
2023/05/09 06:34:36;;;;;;;16.60;9.80;;;16.20;99.90;;;;;;5050924;28;20596;-67
2023/05/09 06:37:02;;;;;;;13.27;8.68;;;16.20;99.90;;;;;;5042767;28;20182;-66
2023/05/09 06:39:28;;;;;;;12.63;9.90;;;16.30;99.90;;;;;;5052039;28;20200;-68
2023/05/09 06:41:53;;;;;;;14.63;10.05;;;16.20;99.90;;;;;;5047679;28;20225;-68
2023/05/09 06:44:19;;;;;;;11.15;8.00;;;16.40;99.90;;;;;;5051652;28;20186;-68
2023/05/09 06:46:45;;;;;;;15.13;8.88;;;16.30;99.90;;;;;;5051282;28;20196;-69
2023/05/09 06:49:12;;;;;;;11.27;8.02;;;16.30;99.90;;;;;;5050370;28;20205;-68
2023/05/09 06:51:38;;;;;;;12.57;8.80;;;16.30;99.90;;;;;;5052037;28;20198;-69
2023/05/09 06:54:04;;;;;;;9.48;7.28;;;16.40;99.90;;;;;;5048073;28;20204;-66
2023/05/09 06:56:30;;;;;;;15.70;8.18;;;16.30;99.90;;;;;;5048830;28;20217;-69
2023/05/09 06:58:55;;;;;;;10.82;7.80;;;16.30;99.90;;;;;;5045466;28;20220;-68
2023/05/09 07:01:21;;;;;;;12.90;8.48;;;16.40;99.90;;;;;;5054423;28;20678;-67
2023/05/09 07:03:47;;;;;;;11.18;8.88;;;16.60;99.90;;;;;;5056065;28;20247;-67
2023/05/09 07:06:13;;;;;;;10.23;8.10;;;16.60;99.90;;;;;;5055776;28;20265;-70
2023/05/09 07:08:38;;;;;;;11.27;8.02;;;16.50;99.90;;;;;;5056352;28;20219;-67
2023/05/09 07:11:04;;;;;;;9.88;8.30;;;16.60;99.90;;;;;;5055316;28;20185;-67
2023/05/09 07:13:30;;;;;;;14.00;7.60;;;16.60;99.90;;;;;;5052184;28;20265;-68
2023/05/09 07:15:56;;;;;;;10.82;8.60;;;16.60;99.90;;;;;;5085598;28;20239;-66
2023/05/09 07:18:22;;;;;;;11.77;7.60;;;16.50;99.90;;;;;;5055142;28;20197;-66
2023/05/09 07:20:47;;;;;;;9.70;7.70;;;16.60;99.90;;;;;;5055721;28;20210;-67
2023/05/09 07:23:13;;;;;;;11.25;7.25;;;16.60;99.90;;;;;;5055702;28;20178;-69
2023/05/09 07:25:39;;;;;;;10.38;7.57;;;16.40;99.90;;;;;;5056168;28;20216;-65
2023/05/09 07:28:05;;;;;;;10.82;7.57;;;16.40;99.90;;;;;;5054723;28;20182;-66
2023/05/09 07:30:31;;;;;;;13.00;7.53;;;16.30;99.90;;;;;;5054563;28;20285;-66
2023/05/09 07:32:56;;;;;;;12.30;8.05;;;16.30;99.90;;;;;;5081082;28;20679;-66
2023/05/09 07:35:22;;;;;;;8.40;6.90;;;16.30;99.90;;;;;;5047945;28;20508;-66
2023/05/09 07:37:48;;;;;;;13.85;8.73;;;16.40;99.90;;;;;;5054392;28;20211;-66
2023/05/09 07:40:14;;;;;;;11.48;7.15;;;16.50;99.90;;;;;;5045300;28;20205;-68
2023/05/09 07:42:39;;;;;;;11.45;7.68;;;16.50;99.90;;;;;;5044845;28;20208;-67
2023/05/09 07:45:06;;;;;;;9.65;8.23;;;16.60;99.90;;;;;;5043866;28;20285;-67
2023/05/09 07:47:32;;;;;;;12.25;8.55;;;16.50;99.90;;;;;;5053069;28;20650;-67
2023/05/09 07:49:57;;;;;;;14.93;8.48;;;16.60;99.90;;;;;;5053258;28;20202;-69
2023/05/09 07:52:23;;;;;;;12.45;7.70;;;16.70;99.90;;;;;;5041013;28;20275;-67
2023/05/09 07:54:49;;;;;;;13.02;8.80;;;16.60;99.90;;;;;;5045972;28;20651;-68
2023/05/09 07:57:15;;;;;;;15.02;8.63;;;16.60;99.90;;;;;;5053227;28;20669;-68
2023/05/09 07:59:41;;;;;;;10.57;7.45;;;16.60;99.90;;;;;;5044116;28;20200;-66
2023/05/09 08:02:07;;;;;;;8.45;5.85;;;16.60;99.90;;;;;;5051790;28;20193;-66
2023/05/09 08:04:36;;;;;;;11.38;8.13;;;16.40;99.90;;;;;;5070569;28;20182;-65
2023/05/09 08:07:03;;;;;;;11.68;7.68;;;16.30;99.90;;;;;;5048495;28;20190;-70
2023/05/09 08:09:29;;;;;;;9.20;7.10;;;16.20;99.90;;;;;;5050406;28;20186;-67
2023/05/09 08:11:54;;;;;;;9.98;7.13;;;16.10;99.90;;;;;;5046662;28;20268;-67
2023/05/09 08:14:20;;;;;;;9.35;7.47;;;16.30;99.90;;;;;;5053610;28;20174;-67
2023/05/09 08:16:46;;;;;;;8.57;7.10;;;16.30;99.90;;;;;;5052300;28;20720;-67
2023/05/09 08:19:12;;;;;;;14.02;7.50;;;16.20;99.90;;;;;;5042669;28;20238;-67
2023/05/09 08:21:37;;;;;;;11.75;8.10;;;16.00;99.90;;;;;;5048803;28;20244;-67
2023/05/09 08:24:06;;;;;;;9.90;6.85;;;16.10;99.90;;;;;;5049707;28;20194;-66
2023/05/09 08:26:33;;;;;;;10.35;7.22;;;16.00;99.90;;;;;;5040962;28;20178;-67
2023/05/09 08:28:58;;;;;;;11.48;6.82;;;15.90;99.90;;;;;;5054515;28;20174;-67
2023/05/09 08:31:25;;;;;;;10.70;7.03;;;15.80;99.90;;;;;;5043458;28;20249;-66
2023/05/09 08:33:51;;;;;;;11.00;7.30;;;15.90;99.90;;;;;;5042735;28;20708;-68
2023/05/09 08:36:17;;;;;;;14.00;8.00;;;15.90;99.90;;;;;;5046730;28;20170;-68
2023/05/09 08:38:43;;;;;;;8.07;6.93;;;16.10;99.90;;;;;;5054785;28;20643;-67
2023/05/09 08:41:08;;;;;;;12.90;7.88;;;16.20;99.90;;;;;;5053344;28;20210;-66
2023/05/09 08:43:35;;;;;;;12.50;8.20;;;16.40;99.90;;;;;;5049842;28;20186;-66
2023/05/09 08:46:09;;;;;;;10.63;7.85;;;16.40;99.90;;;;;;5037053;28;20230;-66
2023/05/09 08:48:38;;;;;;;10.85;7.40;;;16.40;99.90;;;;;;5038666;28;20178;-68
2023/05/09 08:51:06;;;;;;;10.93;7.43;;;16.40;99.90;;;;;;5053746;28;20720;-67
2023/05/09 08:53:32;;;;;;;11.38;7.35;;;16.60;99.90;;;;;;5046261;28;20647;-69
2023/05/09 08:56:02;;;;;;;11.02;7.45;;;16.60;99.90;;;;;;5042432;28;20193;-67
2023/05/09 08:58:29;;;;;;;9.07;6.80;;;16.50;99.90;;;;;;5047632;28;20183;-68
2023/05/09 09:00:55;;;;;;;10.68;7.65;;;16.30;99.90;;;;;;5044374;28;20692;-66
2023/05/09 09:03:22;;;;;;;9.05;7.20;;;16.30;99.90;;;;;;5053861;28;20272;-66
2023/05/09 09:05:49;;;;;;;10.52;6.82;;;16.30;99.90;;;;;;5049641;28;20232;-66
2023/05/09 09:08:16;;;;;;;7.72;6.68;;;16.40;99.90;;;;;;5040725;28;20194;-67
2023/05/09 09:10:46;;;;;;;9.35;6.40;;;16.50;99.90;;;;;;5049703;28;20228;-68
2023/05/09 09:13:12;;;;;;;10.43;7.05;;;16.50;99.90;;;;;;5045961;28;20656;-66
2023/05/09 09:15:40;;;;;;;7.88;6.68;;;16.30;99.90;;;;;;5048093;28;20185;-72
2023/05/09 09:18:11;;;;;;;9.10;6.45;;;16.00;99.90;;;;;;5053111;28;20198;-69
2023/05/09 09:20:43;;;;;;;8.57;6.70;;;16.00;99.90;;;;;;5038852;28;20217;-67
2023/05/09 09:23:11;;;;;;;7.88;6.38;;;16.10;99.90;;;;;;5045798;28;20233;-65
2023/05/09 09:25:37;;;;;;;8.45;6.50;;;16.10;99.90;;;;;;5042534;28;20175;-68
2023/05/09 09:28:04;;;;;;;10.15;6.88;;;16.10;99.90;;;;;;5051370;28;20189;-67
2023/05/09 09:30:29;;;;;;;10.80;6.90;;;16.10;99.90;;;;;;5044696;28;20178;-68
2023/05/09 09:32:58;;;;;;;8.85;6.35;;;16.10;99.90;;;;;;5050615;28;20197;-66
2023/05/09 09:35:23;;;;;;;12.82;7.43;;;16.30;99.90;;;;;;5051069;28;20182;-66
2023/05/09 09:37:57;;;;;;;8.45;7.10;;;16.30;99.90;;;;;;5048602;28;20182;-66
2023/05/09 09:40:23;;;;;;;11.55;7.30;;;16.20;99.90;;;;;;5048930;28;20348;-67
2023/05/09 09:42:51;;;;;;;13.20;6.80;;;16.40;99.90;;;;;;5041693;28;20170;-66
2023/05/09 09:45:18;;;;;;;11.13;6.57;;;16.50;99.90;;;;;;5049371;28;20259;-67
2023/05/09 09:47:45;;;;;;;9.07;6.60;;;16.40;99.90;;;;;;5045203;28;20182;-69
2023/05/09 09:50:18;;;;;;;11.10;6.68;;;16.50;99.90;;;;;;5048139;28;20247;-67
2023/05/09 09:52:55;;;;;;;8.80;5.95;;;16.40;99.90;;;;;;5046590;28;20178;-68
2023/05/09 09:55:22;;;;;;;8.95;5.93;;;16.30;99.90;;;;;;5052330;28;20549;-64
2023/05/09 09:57:49;;;;;;;9.25;6.57;;;16.20;99.90;;;;;;5050758;28;20178;-65
2023/05/09 10:00:17;;;;;;;9.38;6.22;;;16.10;99.90;;;;;;5040559;28;20211;-65
2023/05/09 10:02:54;;;;;;;10.57;6.43;;;15.90;99.90;;;;;;5048946;28;20273;-65
2023/05/09 10:05:25;;;;;;;9.65;6.15;;;15.70;99.90;;;;;;5069631;28;20647;-70
2023/05/09 10:08:00;;;;;;;9.30;6.43;;;15.60;99.90;;;;;;5036002;28;20184;-66
2023/05/09 10:10:30;;;;;;;6.47;5.80;;;15.60;99.90;;;;;;5046212;28;20208;-67
2023/05/09 10:13:08;;;;;;;9.70;5.95;;;15.60;99.90;;;;;;5048999;28;20201;-68
2023/05/09 10:15:36;;;;;;;8.43;6.47;;;15.60;99.90;;;;;;5047561;28;20643;-67
2023/05/09 10:18:03;;;;;;;11.43;6.40;;;15.80;99.90;;;;;;5051986;28;20201;-66
2023/05/09 10:20:30;;;;;;;5.70;5.10;;;16.00;99.90;;;;;;5044857;28;20222;-65
2023/05/09 10:22:59;;;;;;;12.35;6.22;;;16.10;99.90;;;;;;5045701;28;20184;-65
2023/05/09 10:25:42;;;;;;;9.50;6.32;;;16.20;99.90;;;;;;5052996;28;20186;-68
2023/05/09 10:28:14;;;;;;;11.95;6.47;;;15.90;99.90;;;;;;5047316;28;20209;-67
2023/05/09 10:31:09;;;;;;;7.50;5.70;;;15.90;99.90;;;;;;5052579;28;20185;-66
2023/05/09 10:33:47;;;;;;;7.60;6.07;;;16.00;99.90;;;;;;5038946;28;21059;-66
2023/05/09 10:36:20;;;;;;;9.60;6.32;;;16.10;99.90;;;;;;5048681;28;20181;-66
2023/05/09 10:38:47;;;;;;;6.57;5.72;;;16.10;99.90;;;;;;5051321;28;20185;-69
2023/05/09 10:41:15;;;;;;;7.00;5.53;;;16.10;99.90;;;;;;5051960;28;20241;-66
2023/05/09 10:43:41;;;;;;;6.38;5.25;;;16.10;99.90;;;;;;5052019;28;20185;-65
2023/05/09 10:46:08;;;;;;;6.38;5.75;;;16.20;99.90;;;;;;5051911;28;20174;-67
2023/05/09 10:48:35;;;;;;;5.72;5.13;;;16.20;99.90;;;;;;5052392;28;20208;-65
2023/05/09 10:51:02;;;;;;;11.60;6.03;;;16.20;99.90;;;;;;5052062;28;20229;-68
2023/05/09 10:53:44;;;;;;;9.98;6.32;;;16.30;99.90;;;;;;5049047;28;20651;-65
2023/05/09 10:56:31;;;;;;;6.97;5.82;;;16.30;99.90;;;;;;5051796;28;20184;-68
2023/05/09 10:58:57;;;;;;;6.10;5.10;;;16.40;99.90;;;;;;5051361;28;20192;-65
2023/05/09 11:01:37;;;;;;;8.95;6.35;;;16.50;99.90;;;;;;5052250;28;20650;-65
2023/05/09 11:04:15;;;;;;;9.68;6.10;;;16.50;99.90;;;;;;5051574;28;20593;-66
2023/05/09 11:06:51;;;;;;;10.32;6.18;;;16.40;99.90;;;;;;5043563;28;20179;-66
2023/05/09 11:09:36;;;;;;;11.07;6.78;;;16.40;99.90;;;;;;5048796;28;20696;-66
2023/05/09 11:12:09;;;;;;;9.57;6.80;;;16.50;99.90;;;;;;5036761;28;20191;-67
2023/05/09 11:14:34;;;;;;;7.80;5.45;;;16.30;99.90;;;;;;5041810;28;20178;-67
2023/05/09 11:17:03;;;;;;;8.88;6.57;;;16.20;99.90;;;;;;5048888;28;20189;-65
2023/05/09 11:19:37;;;;;;;11.13;7.40;;;16.30;99.90;;;;;;5050213;28;20234;-66
2023/05/09 11:22:43;;;;;;;9.63;7.03;;;16.40;99.90;;;;;;5050815;28;20568;-69
2023/05/09 11:25:11;;;;;;;10.38;6.80;;;16.40;99.90;;;;;;5040072;28;20185;-66
2023/05/09 11:27:42;;;;;;;7.75;6.28;;;16.40;99.90;;;;;;5051875;28;20189;-66
2023/05/09 11:30:09;;;;;;;9.63;6.80;;;16.30;99.90;;;;;;5039744;28;20186;-66
2023/05/09 11:32:54;;;;;;;10.57;7.68;;;16.20;99.90;;;;;;5042945;28;20182;-65
2023/05/09 11:35:21;;;;;;;7.68;6.57;;;16.20;99.90;;;;;;5039345;28;20630;-65
2023/05/09 11:37:54;;;;;;;8.73;7.10;;;16.10;99.90;;;;;;5051662;28;20257;-65
2023/05/09 11:40:21;;;;;;;11.30;6.88;;;16.20;99.90;;;;;;5040967;28;20260;-66
2023/05/09 11:42:52;;;;;;;8.63;6.97;;;16.20;99.90;;;;;;5051404;28;20174;-65
2023/05/09 11:45:17;;;;;;;10.20;6.75;;;16.10;99.90;;;;;;5053347;28;20178;-66
2023/05/09 11:47:45;;;;;;;9.02;6.43;;;16.10;99.90;;;;;;5054942;28;20635;-64
2023/05/09 11:50:13;;;;;;;7.18;5.90;;;16.20;99.90;;;;;;5055255;28;20643;-65
2023/05/09 11:52:40;;;;;;;9.80;7.00;;;16.20;99.90;;;;;;5054955;28;20269;-65
2023/05/09 11:55:10;;;;;;;9.88;7.85;;;16.30;99.90;;;;;;5055701;28;20205;-66
2023/05/09 11:57:41;;;;;;;7.45;6.47;;;16.30;99.90;;;;;;5046075;28;20178;-65
2023/05/09 12:00:09;;;;;;;9.95;7.40;;;16.20;99.90;;;;;;5050647;28;20202;-65
2023/05/09 12:02:35;;;;;;;10.02;7.90;;;16.20;99.90;;;;;;5054934;28;20174;-66
2023/05/09 12:05:12;;;;;;;13.63;8.23;;;16.20;99.90;;;;;;5055445;28;20174;-64
2023/05/09 12:07:38;;;;;;;12.98;9.55;;;16.20;99.90;;;;;;5047208;28;20181;-67
2023/05/09 12:10:13;;;;;;;12.25;8.23;;;16.30;99.90;;;;;;5055273;28;20193;-67
2023/05/09 12:12:47;;;;;;;10.55;6.35;;;16.30;99.90;;;;;;5053349;28;20223;-65
2023/05/09 12:15:13;;;;;;;8.13;5.75;;;16.30;99.90;;;;;;5054427;28;20515;-66
2023/05/09 12:17:40;;;;;;;8.75;5.50;;;16.20;99.90;;;;;;5054707;28;20528;-66
2023/05/09 12:20:07;;;;;;;7.88;6.00;;;16.10;99.90;;;;;;5051108;28;20237;-65
2023/05/09 12:22:33;;;;;;;11.23;7.13;;;15.90;99.90;;;;;;5055037;28;20643;-65
2023/05/09 12:25:01;;;;;;;7.53;6.40;;;16.00;99.90;;;;;;5053099;28;20650;-65
2023/05/09 12:27:28;;;;;;;7.13;6.15;;;16.10;99.90;;;;;;5045942;28;20285;-64
2023/05/09 12:29:54;;;;;;;11.63;7.10;;;16.20;99.90;;;;;;5054259;28;20197;-64
2023/05/09 12:32:20;;;;;;;6.68;5.00;;;16.20;99.90;;;;;;5045715;28;20210;-65
2023/05/09 12:34:50;;;;;;;9.07;5.45;;;16.10;99.90;;;;;;5055112;28;20182;-64
2023/05/09 12:37:20;;;;;;;6.65;4.53;;;16.00;99.90;;;;;;5052372;28;20347;-65
2023/05/09 12:40:01;;;;;;;5.38;4.50;;;15.80;99.90;;;;;;5048749;28;20179;-65
2023/05/09 12:42:31;;;;;;;5.72;4.57;;;15.60;99.90;;;;;;5043031;28;20523;-66
2023/05/09 12:44:57;;;;;;;4.68;2.97;;;15.60;99.90;;;;;;5048146;28;20186;-65